AirNav   Air Wisconsin Up To $57,000 Bonus
 
 950 users online  

NE24 Bresette Airport
Gretna, Nebraska, USA


FAA INFORMATION EFFECTIVE 03 NOVEMBER 2022

Location

FAA Identifier: NE24
Lat/Long: 41-05-48.5300N 096-17-02.6600W
41-05.808833N 096-17.044333W
41.0968139,-96.2840722
(estimated)
Elevation: 1072 ft. / 327 m (estimated)
From city: 3 miles SW of GRETNA, NE
Time zone: UTC -6 (UTC -5 during Daylight Saving Time)
Zip code: 68028

Airport Operations

Airport use: Private use. Permission required prior to landing
Activation date: 11/2021
Control tower: no
ARTCC: MINNEAPOLIS CENTER
FSS: COLUMBUS FLIGHT SERVICE STATION
Attendance: 
Segmented circle: no

Airport Communications

WX AWOS-3 at MLE (10 nm NE): 118.25 (402-895-6778)
WX AWOS-3P at AHQ (16 nm NW): 125.975 (402-443-4030)
WX AWOS-3 at PMV (19 nm SE): 118.975 (402-298-7524)

Nearby radio navigation aids

VOR radial/distance  VOR name  Freq  Var
LNKr054/23.2LINCOLN VORTAC116.1009E
OVRr252/25.1OMAHA VORTAC116.3008E
SCBr147/34.2SCRIBNER VOR/DME111.0006E

 
NDB name  Hdg/Dist  Freq  Var  ID
WAHOO115/16.640006EAHQ .- .... --.-
PLATTSMOUTH294/19.232905EPMV .--. -- ...-
NEBRASKA CITY322/35.234705EAFK .- ..-. -.-

Airport Services

Runway Information

Runway 18/36

Dimensions: 600 x 100 ft. / 183 x 30 m
Surface: turf
RUNWAY 18  RUNWAY 36
Latitude: 41-05.858500N41-05.759500N
Longitude: 096-17.044333W096-17.044333W
Elevation: 1067.0 ft.1072.0 ft.
Traffic pattern: rightleft
Touchdown point: yes, no lightsyes, no lights

Airport Ownership and Management from official FAA records

Ownership: Privately-owned
Owner: MATTHEW T BRESETTE
14574 S 234TH STREET
GRETNA, NE 68028
Phone 402-212-8865
Manager: MATTHEW T BRESETTE
14574 S 234TH STREET
GRETNA, NE 68028
Phone 402-212-8865

Airport Operational Statistics

Aircraft based on the field: 1
Single engine airplanes: 1
    

Additional Remarks

OWNER DESIRES ARPT NOT BE CHARTED.

Instrument Procedures

There are no published instrument procedures at NE24.

Some nearby airports with instrument procedures:

KMLE - Millard Airport (10 nm NE)
KAHQ - Wahoo Municipal Airport (16 nm NW)
KOFF - Offutt Air Force Base (17 nm E)
KPMV - Plattsmouth Municipal Airport/Douglas V Duey Field (19 nm SE)
KBTA - Blair Executive Airport (21 nm N)
 
Loc | Ops | Rwys | IFR | FBO | Links
Com | Nav | Svcs | Stats | Notes
Aerial photo
No photo
 
Airport distance calculator
Flying to Bresette Airport? Find the distance to fly.

From to NE24

Sunrise and sunset
Times for 30-Nov-2022
 Local
(UTC-6)
 Zulu
(UTC)
Morning civil twilight07:0013:00
Sunrise07:3113:31
Sunset16:5722:57
Evening civil twilight17:2723:27

Current date and time
Zulu (UTC)  01-Dec-2022 02:33:03
Local (UTC-6)  30-Nov-2022 20:33:03
 
METAR
KMLE 
10nm NE 
010215Z AUTO 00000KT 10SM CLR M07/M11 A3038 RMK AO2 T10731113
KAHQ 
16nm NW 
010215Z AUTO 16003KT 10SM CLR M09/M13 A3036 RMK AO2 T10931134
KOFF 
17nm E 
010155Z 08003KT 10SM CLR M07/M13 A3039 RMK AO2A SLP315 T10691126 PWINO PNO FZRANO TSNO $
KPMV 
19nm SE 
010215Z AUTO 00000KT 10SM CLR M07/M12 RMK AO2 T10711124
TAF
KOFF 
17nm E 
010200Z 0102/0208 VRB06KT 9999 FEW250 QNH3034INS BECMG 0107/0108 16009KT 9999 FEW250 WS020/19045KT QNH3020INS BECMG 0113/0114 16015G25KT 9999 SKC WS020/19060KT 520003 QNH3015INS BECMG 0115/0116 19025G35KT 9999 SKC 520003 QNH3012INS BECMG 0121/0122 18012G18KT 9999 SKC WS020/20045KT QNH2976INS TX08/0120Z TNM08/0105Z
NOTAMs
Click for the latest NOTAMs
NOTAMs are issued by the DoD/FAA and will open in a separate window not controlled by AirNav.

 

 
 

Would you like to see your business listed on this page?

 If your business provides an interesting product or service to pilots, flight crews, aircraft, or users of the Bresette Airport, you should consider listing it here.  To start the listing process, click on the button below
 
Add a business
 

Other Pages about Bresette Airport

Update a link
 
Copyright © AirNav, LLC. All rights reserved. Privacy Policy  Contact